sensor_id;sensor_type;location;lat;lon;timestamp;pressure;altitude;pressure_sealevel;temperature;humidity
10202;BME280;5143;42.584;23.164;2023-07-31T00:00:08;92401.97;;;18.69;100.00
10202;BME280;5143;42.584;23.164;2023-07-31T00:02:37;92390.28;;;18.63;100.00
10202;BME280;5143;42.584;23.164;2023-07-31T00:05:04;92403.91;;;18.61;100.00
10202;BME280;5143;42.584;23.164;2023-07-31T00:07:32;92414.84;;;18.66;100.00
10202;BME280;5143;42.584;23.164;2023-07-31T00:09:59;92406.41;;;18.72;100.00
10202;BME280;5143;42.584;23.164;2023-07-31T00:12:25;92408.75;;;18.68;100.00
10202;BME280;5143;42.584;23.164;2023-07-31T00:14:52;92405.66;;;18.71;100.00
10202;BME280;5143;42.584;23.164;2023-07-31T00:17:19;92402.91;;;18.71;100.00
10202;BME280;5143;42.584;23.164;2023-07-31T00:19:47;92396.16;;;18.80;100.00
10202;BME280;5143;42.584;23.164;2023-07-31T00:22:15;92391.50;;;18.75;100.00
10202;BME280;5143;42.584;23.164;2023-07-31T00:24:42;92398.66;;;18.91;100.00
10202;BME280;5143;42.584;23.164;2023-07-31T00:27:09;92395.47;;;18.87;100.00
10202;BME280;5143;42.584;23.164;2023-07-31T00:29:36;92373.50;;;18.81;100.00
10202;BME280;5143;42.584;23.164;2023-07-31T00:32:03;92361.47;;;18.79;100.00
10202;BME280;5143;42.584;23.164;2023-07-31T00:34:30;92321.66;;;18.54;100.00
10202;BME280;5143;42.584;23.164;2023-07-31T00:36:58;92345.56;;;18.72;100.00
10202;BME280;5143;42.584;23.164;2023-07-31T00:39:25;92339.63;;;18.68;100.00
10202;BME280;5143;42.584;23.164;2023-07-31T00:41:52;92351.78;;;18.65;100.00
10202;BME280;5143;42.584;23.164;2023-07-31T00:44:19;92372.00;;;18.60;100.00
10202;BME280;5143;42.584;23.164;2023-07-31T00:46:45;92370.13;;;18.55;100.00
10202;BME280;5143;42.584;23.164;2023-07-31T00:49:12;92372.34;;;18.43;100.00
10202;BME280;5143;42.584;23.164;2023-07-31T00:51:39;92360.91;;;18.39;100.00
10202;BME280;5143;42.584;23.164;2023-07-31T00:54:07;92383.09;;;18.47;100.00
10202;BME280;5143;42.584;23.164;2023-07-31T00:56:34;92372.50;;;18.38;100.00
10202;BME280;5143;42.584;23.164;2023-07-31T00:59:01;92373.78;;;18.37;100.00
10202;BME280;5143;42.584;23.164;2023-07-31T01:01:28;92373.03;;;18.36;100.00
10202;BME280;5143;42.584;23.164;2023-07-31T01:03:55;92368.72;;;18.27;100.00
10202;BME280;5143;42.584;23.164;2023-07-31T01:06:29;92366.88;;;18.30;100.00
10202;BME280;5143;42.584;23.164;2023-07-31T01:09:01;92369.72;;;18.38;100.00
10202;BME280;5143;42.584;23.164;2023-07-31T01:11:31;92354.44;;;18.37;100.00
10202;BME280;5143;42.584;23.164;2023-07-31T01:13:59;92352.00;;;18.33;100.00
10202;BME280;5143;42.584;23.164;2023-07-31T01:16:26;92351.47;;;18.35;100.00
10202;BME280;5143;42.584;23.164;2023-07-31T01:18:56;92350.16;;;18.49;100.00
10202;BME280;5143;42.584;23.164;2023-07-31T01:21:34;92359.09;;;18.42;100.00
10202;BME280;5143;42.584;23.164;2023-07-31T01:24:20;92363.00;;;18.46;100.00
10202;BME280;5143;42.584;23.164;2023-07-31T01:26:55;92361.44;;;18.51;100.00
10202;BME280;5143;42.584;23.164;2023-07-31T01:29:29;92352.25;;;18.56;100.00
10202;BME280;5143;42.584;23.164;2023-07-31T01:32:01;92337.16;;;18.57;100.00
10202;BME280;5143;42.584;23.164;2023-07-31T01:34:28;92349.09;;;18.72;100.00
10202;BME280;5143;42.584;23.164;2023-07-31T01:36:55;92354.72;;;18.88;100.00
10202;BME280;5143;42.584;23.164;2023-07-31T01:39:22;92357.59;;;18.95;100.00
10202;BME280;5143;42.584;23.164;2023-07-31T01:41:50;92354.22;;;18.89;100.00
10202;BME280;5143;42.584;23.164;2023-07-31T01:44:17;92355.91;;;18.92;100.00
10202;BME280;5143;42.584;23.164;2023-07-31T01:46:44;92350.16;;;18.90;100.00
10202;BME280;5143;42.584;23.164;2023-07-31T01:49:10;92358.25;;;18.88;100.00
10202;BME280;5143;42.584;23.164;2023-07-31T01:51:37;92357.31;;;18.85;100.00
10202;BME280;5143;42.584;23.164;2023-07-31T01:54:04;92363.13;;;18.95;100.00
10202;BME280;5143;42.584;23.164;2023-07-31T01:56:31;92356.56;;;18.85;100.00
10202;BME280;5143;42.584;23.164;2023-07-31T01:58:59;92350.56;;;18.94;100.00
10202;BME280;5143;42.584;23.164;2023-07-31T02:01:25;92357.97;;;18.99;100.00
10202;BME280;5143;42.584;23.164;2023-07-31T02:03:52;92365.00;;;19.00;100.00
10202;BME280;5143;42.584;23.164;2023-07-31T02:06:19;92360.94;;;19.01;100.00
10202;BME280;5143;42.584;23.164;2023-07-31T02:08:46;92369.84;;;19.07;100.00
10202;BME280;5143;42.584;23.164;2023-07-31T02:11:13;92364.72;;;19.11;100.00
10202;BME280;5143;42.584;23.164;2023-07-31T02:13:39;92366.59;;;19.16;100.00
10202;BME280;5143;42.584;23.164;2023-07-31T02:16:08;92363.25;;;19.18;100.00
10202;BME280;5143;42.584;23.164;2023-07-31T02:18:35;92363.41;;;19.12;100.00
10202;BME280;5143;42.584;23.164;2023-07-31T02:21:02;92372.88;;;19.17;100.00
10202;BME280;5143;42.584;23.164;2023-07-31T02:23:29;92374.00;;;19.21;100.00
10202;BME280;5143;42.584;23.164;2023-07-31T02:25:55;92369.97;;;19.22;100.00
10202;BME280;5143;42.584;23.164;2023-07-31T02:28:22;92364.56;;;19.17;100.00
10202;BME280;5143;42.584;23.164;2023-07-31T02:30:50;92374.41;;;19.25;100.00
10202;BME280;5143;42.584;23.164;2023-07-31T02:33:19;92365.88;;;19.23;100.00
10202;BME280;5143;42.584;23.164;2023-07-31T02:35:45;92372.44;;;19.33;100.00
10202;BME280;5143;42.584;23.164;2023-07-31T02:38:12;92367.09;;;19.35;100.00
10202;BME280;5143;42.584;23.164;2023-07-31T02:40:39;92375.59;;;19.37;100.00
10202;BME280;5143;42.584;23.164;2023-07-31T02:43:06;92370.75;;;19.30;100.00
10202;BME280;5143;42.584;23.164;2023-07-31T02:45:33;92375.28;;;19.41;100.00
10202;BME280;5143;42.584;23.164;2023-07-31T02:48:00;92378.16;;;19.35;100.00
10202;BME280;5143;42.584;23.164;2023-07-31T02:50:28;92377.28;;;19.40;100.00
10202;BME280;5143;42.584;23.164;2023-07-31T02:52:55;92393.28;;;19.34;100.00
10202;BME280;5143;42.584;23.164;2023-07-31T02:55:21;92388.81;;;19.31;100.00
10202;BME280;5143;42.584;23.164;2023-07-31T02:57:48;92391.81;;;19.33;100.00
10202;BME280;5143;42.584;23.164;2023-07-31T03:00:15;92378.31;;;19.30;100.00
10202;BME280;5143;42.584;23.164;2023-07-31T03:02:43;92390.13;;;19.30;100.00
10202;BME280;5143;42.584;23.164;2023-07-31T03:05:09;92391.16;;;19.20;100.00
10202;BME280;5143;42.584;23.164;2023-07-31T03:07:37;92392.47;;;19.26;100.00
10202;BME280;5143;42.584;23.164;2023-07-31T03:10:05;92387.88;;;19.29;100.00
10202;BME280;5143;42.584;23.164;2023-07-31T03:12:32;92388.44;;;19.27;100.00
10202;BME280;5143;42.584;23.164;2023-07-31T03:14:59;92380.53;;;19.31;100.00
10202;BME280;5143;42.584;23.164;2023-07-31T03:17:25;92385.72;;;19.35;100.00
10202;BME280;5143;42.584;23.164;2023-07-31T03:19:53;92390.31;;;19.32;100.00
10202;BME280;5143;42.584;23.164;2023-07-31T03:22:19;92390.81;;;19.44;100.00
10202;BME280;5143;42.584;23.164;2023-07-31T03:24:47;92398.97;;;19.50;100.00
10202;BME280;5143;42.584;23.164;2023-07-31T03:27:14;92396.72;;;19.48;100.00
10202;BME280;5143;42.584;23.164;2023-07-31T03:29:41;92398.75;;;19.48;100.00
10202;BME280;5143;42.584;23.164;2023-07-31T03:32:07;92393.00;;;19.46;100.00
10202;BME280;5143;42.584;23.164;2023-07-31T03:34:34;92409.69;;;19.32;100.00
10202;BME280;5143;42.584;23.164;2023-07-31T03:37:01;92381.22;;;19.24;100.00
10202;BME280;5143;42.584;23.164;2023-07-31T03:39:28;92408.81;;;19.37;100.00
10202;BME280;5143;42.584;23.164;2023-07-31T03:41:56;92398.06;;;19.34;100.00
10202;BME280;5143;42.584;23.164;2023-07-31T03:44:22;92410.94;;;19.45;100.00
10202;BME280;5143;42.584;23.164;2023-07-31T03:46:49;92409.25;;;19.41;100.00
10202;BME280;5143;42.584;23.164;2023-07-31T03:49:16;92416.66;;;19.47;100.00
10202;BME280;5143;42.584;23.164;2023-07-31T03:51:42;92423.66;;;19.48;100.00
10202;BME280;5143;42.584;23.164;2023-07-31T03:54:10;92417.31;;;19.39;100.00
10202;BME280;5143;42.584;23.164;2023-07-31T03:56:36;92423.28;;;19.43;100.00
10202;BME280;5143;42.584;23.164;2023-07-31T03:59:05;92423.47;;;19.46;100.00
10202;BME280;5143;42.584;23.164;2023-07-31T04:01:32;92422.94;;;19.47;100.00
10202;BME280;5143;42.584;23.164;2023-07-31T04:03:58;92421.25;;;19.44;100.00
10202;BME280;5143;42.584;23.164;2023-07-31T04:06:25;92416.59;;;19.39;100.00
10202;BME280;5143;42.584;23.164;2023-07-31T04:08:52;92418.13;;;19.48;100.00
10202;BME280;5143;42.584;23.164;2023-07-31T04:11:19;92414.47;;;19.53;100.00
10202;BME280;5143;42.584;23.164;2023-07-31T04:13:45;92417.09;;;19.58;100.00
10202;BME280;5143;42.584;23.164;2023-07-31T04:16:13;92413.41;;;19.56;100.00
10202;BME280;5143;42.584;23.164;2023-07-31T04:18:40;92429.16;;;19.68;100.00
10202;BME280;5143;42.584;23.164;2023-07-31T04:21:07;92420.59;;;19.59;100.00
10202;BME280;5143;42.584;23.164;2023-07-31T04:23:35;92429.69;;;19.67;100.00
10202;BME280;5143;42.584;23.164;2023-07-31T04:26:02;92432.81;;;19.63;100.00
10202;BME280;5143;42.584;23.164;2023-07-31T04:28:28;92422.97;;;19.55;100.00
10202;BME280;5143;42.584;23.164;2023-07-31T04:30:57;92424.47;;;19.56;100.00
10202;BME280;5143;42.584;23.164;2023-07-31T04:33:25;92435.13;;;19.52;100.00
10202;BME280;5143;42.584;23.164;2023-07-31T04:35:53;92422.84;;;19.39;100.00
10202;BME280;5143;42.584;23.164;2023-07-31T04:38:20;92420.66;;;19.38;100.00
10202;BME280;5143;42.584;23.164;2023-07-31T04:40:47;92429.47;;;19.36;100.00
10202;BME280;5143;42.584;23.164;2023-07-31T04:43:13;92427.38;;;19.50;100.00
10202;BME280;5143;42.584;23.164;2023-07-31T04:45:42;92419.00;;;19.42;100.00
10202;BME280;5143;42.584;23.164;2023-07-31T04:48:11;92411.66;;;19.45;100.00
10202;BME280;5143;42.584;23.164;2023-07-31T04:50:39;92425.66;;;19.68;100.00
10202;BME280;5143;42.584;23.164;2023-07-31T04:53:06;92415.63;;;19.57;100.00
10202;BME280;5143;42.584;23.164;2023-07-31T04:55:32;92425.06;;;19.62;100.00
10202;BME280;5143;42.584;23.164;2023-07-31T04:57:59;92428.81;;;19.72;100.00
10202;BME280;5143;42.584;23.164;2023-07-31T05:00:26;92423.84;;;19.78;100.00
10202;BME280;5143;42.584;23.164;2023-07-31T05:02:53;92422.47;;;19.92;100.00
10202;BME280;5143;42.584;23.164;2023-07-31T05:05:19;92416.25;;;20.07;100.00
10202;BME280;5143;42.584;23.164;2023-07-31T05:07:47;92382.56;;;19.87;100.00
10202;BME280;5143;42.584;23.164;2023-07-31T05:10:14;92438.94;;;20.33;100.00
10202;BME280;5143;42.584;23.164;2023-07-31T05:12:41;92413.50;;;20.57;100.00
10202;BME280;5143;42.584;23.164;2023-07-31T05:15:09;92429.34;;;21.00;100.00
10202;BME280;5143;42.584;23.164;2023-07-31T05:17:36;92424.94;;;21.35;100.00
10202;BME280;5143;42.584;23.164;2023-07-31T05:20:03;92424.19;;;21.50;100.00
10202;BME280;5143;42.584;23.164;2023-07-31T05:22:30;92429.75;;;21.50;100.00
10202;BME280;5143;42.584;23.164;2023-07-31T05:24:58;92424.19;;;21.57;100.00
10202;BME280;5143;42.584;23.164;2023-07-31T05:27:25;92424.41;;;21.37;100.00
10202;BME280;5143;42.584;23.164;2023-07-31T05:29:52;92434.00;;;21.28;100.00
10202;BME280;5143;42.584;23.164;2023-07-31T05:32:18;92427.66;;;21.05;100.00
10202;BME280;5143;42.584;23.164;2023-07-31T05:34:45;92431.72;;;20.96;100.00
10202;BME280;5143;42.584;23.164;2023-07-31T05:37:12;92427.59;;;20.75;100.00
10202;BME280;5143;42.584;23.164;2023-07-31T05:39:38;92413.53;;;20.65;100.00
10202;BME280;5143;42.584;23.164;2023-07-31T05:42:07;92427.44;;;20.73;100.00
10202;BME280;5143;42.584;23.164;2023-07-31T05:44:34;92434.75;;;20.47;100.00
10202;BME280;5143;42.584;23.164;2023-07-31T05:47:00;92427.88;;;20.41;100.00
10202;BME280;5143;42.584;23.164;2023-07-31T05:49:27;92418.63;;;20.38;100.00
10202;BME280;5143;42.584;23.164;2023-07-31T05:51:54;92427.16;;;20.48;100.00
10202;BME280;5143;42.584;23.164;2023-07-31T05:54:21;92426.31;;;20.76;100.00
10202;BME280;5143;42.584;23.164;2023-07-31T05:56:47;92444.00;;;21.16;100.00
10202;BME280;5143;42.584;23.164;2023-07-31T05:59:16;92449.19;;;21.35;100.00
10202;BME280;5143;42.584;23.164;2023-07-31T06:01:43;92455.88;;;21.39;100.00
10202;BME280;5143;42.584;23.164;2023-07-31T06:04:10;92434.94;;;21.23;100.00
10202;BME280;5143;42.584;23.164;2023-07-31T06:06:36;92441.41;;;21.48;100.00
10202;BME280;5143;42.584;23.164;2023-07-31T06:09:03;92440.28;;;21.51;100.00
10202;BME280;5143;42.584;23.164;2023-07-31T06:11:30;92450.63;;;21.81;100.00
10202;BME280;5143;42.584;23.164;2023-07-31T06:13:57;92456.56;;;21.85;100.00
10202;BME280;5143;42.584;23.164;2023-07-31T06:16:26;92457.69;;;21.82;100.00
10202;BME280;5143;42.584;23.164;2023-07-31T06:18:53;92448.06;;;21.98;100.00
10202;BME280;5143;42.584;23.164;2023-07-31T06:21:19;92458.53;;;22.22;100.00
10202;BME280;5143;42.584;23.164;2023-07-31T06:23:46;92455.16;;;22.39;100.00
10202;BME280;5143;42.584;23.164;2023-07-31T06:26:13;92455.69;;;22.45;100.00
10202;BME280;5143;42.584;23.164;2023-07-31T06:28:39;92458.44;;;22.68;100.00
10202;BME280;5143;42.584;23.164;2023-07-31T06:31:06;92449.25;;;23.47;100.00
10202;BME280;5143;42.584;23.164;2023-07-31T06:33:34;92448.06;;;24.68;100.00
10202;BME280;5143;42.584;23.164;2023-07-31T06:36:01;92449.28;;;25.45;100.00
10202;BME280;5143;42.584;23.164;2023-07-31T06:38:28;92434.75;;;24.93;96.08
10202;BME280;5143;42.584;23.164;2023-07-31T06:40:54;92429.22;;;24.42;97.92
10202;BME280;5143;42.584;23.164;2023-07-31T06:43:21;92445.53;;;24.62;100.00
10202;BME280;5143;42.584;23.164;2023-07-31T06:45:48;92449.16;;;24.55;97.81
10202;BME280;5143;42.584;23.164;2023-07-31T06:48:16;92448.38;;;24.03;100.00
10202;BME280;5143;42.584;23.164;2023-07-31T06:50:44;92448.25;;;24.19;100.00
10202;BME280;5143;42.584;23.164;2023-07-31T06:53:11;92448.59;;;24.23;100.00
10202;BME280;5143;42.584;23.164;2023-07-31T06:55:38;92438.69;;;24.04;100.00
10202;BME280;5143;42.584;23.164;2023-07-31T06:58:05;92441.19;;;24.69;98.15
10202;BME280;5143;42.584;23.164;2023-07-31T07:00:31;92435.94;;;24.56;94.01
10202;BME280;5143;42.584;23.164;2023-07-31T07:02:58;92436.94;;;24.34;95.05
10202;BME280;5143;42.584;23.164;2023-07-31T07:05:25;92445.44;;;24.70;95.02
10202;BME280;5143;42.584;23.164;2023-07-31T07:07:54;92441.97;;;24.96;91.85
10202;BME280;5143;42.584;23.164;2023-07-31T07:10:20;92445.75;;;26.84;85.63
10202;BME280;5143;42.584;23.164;2023-07-31T07:12:47;92434.03;;;27.76;72.51
10202;BME280;5143;42.584;23.164;2023-07-31T07:15:15;92434.84;;;28.19;73.70
10202;BME280;5143;42.584;23.164;2023-07-31T07:17:41;92444.91;;;29.30;66.50
10202;BME280;5143;42.584;23.164;2023-07-31T07:20:08;92451.75;;;29.27;63.77
10202;BME280;5143;42.584;23.164;2023-07-31T07:22:35;92441.78;;;29.47;62.24
10202;BME280;5143;42.584;23.164;2023-07-31T07:25:04;92441.25;;;28.95;61.38
10202;BME280;5143;42.584;23.164;2023-07-31T07:27:32;92439.81;;;29.61;61.30
10202;BME280;5143;42.584;23.164;2023-07-31T07:29:59;92447.28;;;28.58;61.95
10202;BME280;5143;42.584;23.164;2023-07-31T07:32:26;92446.31;;;29.19;59.33
10202;BME280;5143;42.584;23.164;2023-07-31T07:34:53;92455.63;;;29.66;60.54
10202;BME280;5143;42.584;23.164;2023-07-31T07:37:19;92454.13;;;30.58;55.07
10202;BME280;5143;42.584;23.164;2023-07-31T07:39:46;92467.50;;;31.31;51.64
10202;BME280;5143;42.584;23.164;2023-07-31T07:42:14;92465.50;;;30.60;52.67
10202;BME280;5143;42.584;23.164;2023-07-31T07:44:41;92458.56;;;30.03;52.75
10202;BME280;5143;42.584;23.164;2023-07-31T07:47:08;92454.66;;;30.20;54.68
10202;BME280;5143;42.584;23.164;2023-07-31T07:49:35;92458.53;;;30.61;52.25
10202;BME280;5143;42.584;23.164;2023-07-31T07:52:02;92459.69;;;30.10;54.04
10202;BME280;5143;42.584;23.164;2023-07-31T07:54:30;92456.34;;;29.55;55.76
10202;BME280;5143;42.584;23.164;2023-07-31T07:56:56;92443.78;;;28.91;55.14
10202;BME280;5143;42.584;23.164;2023-07-31T07:59:25;92459.38;;;27.88;61.46
10202;BME280;5143;42.584;23.164;2023-07-31T08:01:51;92449.06;;;26.06;63.73
10202;BME280;5143;42.584;23.164;2023-07-31T08:04:18;92450.75;;;24.93;67.51
10202;BME280;5143;42.584;23.164;2023-07-31T08:06:45;92428.88;;;24.21;71.51
10202;BME280;5143;42.584;23.164;2023-07-31T08:09:12;92439.94;;;25.33;69.50
10202;BME280;5143;42.584;23.164;2023-07-31T08:11:38;92445.31;;;27.57;65.09
10202;BME280;5143;42.584;23.164;2023-07-31T08:14:05;92462.13;;;28.71;56.12
10202;BME280;5143;42.584;23.164;2023-07-31T08:16:33;92472.66;;;30.03;55.53
10202;BME280;5143;42.584;23.164;2023-07-31T08:19:00;92466.81;;;28.56;54.60
10202;BME280;5143;42.584;23.164;2023-07-31T08:21:27;92458.63;;;29.03;56.05
10202;BME280;5143;42.584;23.164;2023-07-31T08:23:53;92474.72;;;29.23;53.42
10202;BME280;5143;42.584;23.164;2023-07-31T08:26:20;92468.34;;;28.48;56.78
10202;BME280;5143;42.584;23.164;2023-07-31T08:28:47;92461.66;;;28.01;57.82
10202;BME280;5143;42.584;23.164;2023-07-31T08:31:14;92467.09;;;26.70;61.98
10202;BME280;5143;42.584;23.164;2023-07-31T08:33:42;92459.59;;;25.79;62.14
10202;BME280;5143;42.584;23.164;2023-07-31T08:36:09;92457.72;;;25.28;64.99
10202;BME280;5143;42.584;23.164;2023-07-31T08:38:35;92452.63;;;25.44;65.81
10202;BME280;5143;42.584;23.164;2023-07-31T08:41:03;92454.13;;;26.17;63.29
10202;BME280;5143;42.584;23.164;2023-07-31T08:43:30;92453.69;;;26.69;63.31
10202;BME280;5143;42.584;23.164;2023-07-31T08:45:57;92444.94;;;27.22;62.73
10202;BME280;5143;42.584;23.164;2023-07-31T08:48:24;92451.63;;;26.31;62.51
10202;BME280;5143;42.584;23.164;2023-07-31T08:50:53;92450.84;;;25.39;64.51
10202;BME280;5143;42.584;23.164;2023-07-31T08:53:20;92434.53;;;24.82;66.74
10202;BME280;5143;42.584;23.164;2023-07-31T08:55:48;92451.81;;;24.36;67.72
10202;BME280;5143;42.584;23.164;2023-07-31T08:58:15;92449.25;;;24.14;71.06
10202;BME280;5143;42.584;23.164;2023-07-31T09:00:46;92445.41;;;23.60;70.89
10202;BME280;5143;42.584;23.164;2023-07-31T09:03:14;92456.91;;;23.64;73.34
10202;BME280;5143;42.584;23.164;2023-07-31T09:05:42;92453.09;;;23.76;74.65
10202;BME280;5143;42.584;23.164;2023-07-31T09:08:12;92444.41;;;24.48;71.46
10202;BME280;5143;42.584;23.164;2023-07-31T09:10:43;92440.19;;;25.18;70.20
10202;BME280;5143;42.584;23.164;2023-07-31T09:13:11;92438.41;;;25.13;67.74
10202;BME280;5143;42.584;23.164;2023-07-31T09:15:39;92451.66;;;25.85;67.15
10202;BME280;5143;42.584;23.164;2023-07-31T09:18:07;92438.81;;;26.57;62.23
10202;BME280;5143;42.584;23.164;2023-07-31T09:20:34;92442.19;;;27.03;63.67
10202;BME280;5143;42.584;23.164;2023-07-31T09:23:08;92444.41;;;26.95;58.78
10202;BME280;5143;42.584;23.164;2023-07-31T09:25:37;92434.06;;;27.07;61.84
10202;BME280;5143;42.584;23.164;2023-07-31T09:28:06;92451.09;;;27.49;54.95
10202;BME280;5143;42.584;23.164;2023-07-31T09:30:44;92432.34;;;27.83;57.96
10202;BME280;5143;42.584;23.164;2023-07-31T09:33:11;92437.44;;;27.15;58.66
10202;BME280;5143;42.584;23.164;2023-07-31T09:35:38;92437.78;;;27.00;61.90
10202;BME280;5143;42.584;23.164;2023-07-31T09:38:07;92445.59;;;27.61;61.88
10202;BME280;5143;42.584;23.164;2023-07-31T09:40:37;92436.72;;;28.26;59.89
10202;BME280;5143;42.584;23.164;2023-07-31T09:43:05;92442.91;;;27.94;55.35
10202;BME280;5143;42.584;23.164;2023-07-31T09:45:34;92427.22;;;28.10;55.33
10202;BME280;5143;42.584;23.164;2023-07-31T09:48:01;92436.78;;;28.38;54.76
10202;BME280;5143;42.584;23.164;2023-07-31T09:50:29;92429.28;;;27.79;60.26
10202;BME280;5143;42.584;23.164;2023-07-31T09:52:56;92438.00;;;27.33;56.56
10202;BME280;5143;42.584;23.164;2023-07-31T09:55:24;92436.00;;;26.76;57.76
10202;BME280;5143;42.584;23.164;2023-07-31T09:57:55;92437.47;;;26.29;59.37
10202;BME280;5143;42.584;23.164;2023-07-31T10:00:26;92419.66;;;26.15;60.40
10202;BME280;5143;42.584;23.164;2023-07-31T10:02:54;92420.69;;;26.19;59.31
10202;BME280;5143;42.584;23.164;2023-07-31T10:05:30;92429.09;;;26.38;58.69
10202;BME280;5143;42.584;23.164;2023-07-31T10:07:57;92429.69;;;26.75;59.40
10202;BME280;5143;42.584;23.164;2023-07-31T10:10:25;92421.63;;;27.20;57.37
10202;BME280;5143;42.584;23.164;2023-07-31T10:12:54;92419.81;;;27.84;57.49
10202;BME280;5143;42.584;23.164;2023-07-31T10:15:22;92408.66;;;28.26;57.23
10202;BME280;5143;42.584;23.164;2023-07-31T10:17:50;92425.06;;;28.41;53.70
10202;BME280;5143;42.584;23.164;2023-07-31T10:20:17;92429.41;;;28.12;55.92
10202;BME280;5143;42.584;23.164;2023-07-31T10:22:43;92426.63;;;27.40;54.99
10202;BME280;5143;42.584;23.164;2023-07-31T10:25:11;92425.84;;;26.90;56.70
10202;BME280;5143;42.584;23.164;2023-07-31T10:27:39;92406.84;;;26.69;57.00
10202;BME280;5143;42.584;23.164;2023-07-31T10:30:11;92409.50;;;26.58;55.92
10202;BME280;5143;42.584;23.164;2023-07-31T10:32:40;92405.81;;;26.46;57.22
10202;BME280;5143;42.584;23.164;2023-07-31T10:35:08;92396.25;;;26.39;56.58
10202;BME280;5143;42.584;23.164;2023-07-31T10:37:37;92402.84;;;26.63;58.28
10202;BME280;5143;42.584;23.164;2023-07-31T10:40:10;92418.31;;;26.73;55.46
10202;BME280;5143;42.584;23.164;2023-07-31T10:42:38;92383.13;;;26.80;54.73
10202;BME280;5143;42.584;23.164;2023-07-31T10:45:14;92404.22;;;27.40;55.71
10202;BME280;5143;42.584;23.164;2023-07-31T10:47:58;92409.22;;;27.32;53.77
10202;BME280;5143;42.584;23.164;2023-07-31T10:50:25;92403.38;;;27.09;53.60
10202;BME280;5143;42.584;23.164;2023-07-31T10:52:53;92400.50;;;27.38;55.89
10202;BME280;5143;42.584;23.164;2023-07-31T10:55:31;92383.53;;;27.45;53.69
10202;BME280;5143;42.584;23.164;2023-07-31T10:58:05;92382.66;;;27.33;52.18
10202;BME280;5143;42.584;23.164;2023-07-31T11:00:37;92387.94;;;27.48;53.80
10202;BME280;5143;42.584;23.164;2023-07-31T11:03:04;92373.88;;;27.18;51.47
10202;BME280;5143;42.584;23.164;2023-07-31T11:05:46;92363.16;;;27.76;55.30
10202;BME280;5143;42.584;23.164;2023-07-31T11:08:15;92371.88;;;28.22;51.87
10202;BME280;5143;42.584;23.164;2023-07-31T11:10:42;92373.50;;;28.04;51.39
10202;BME280;5143;42.584;23.164;2023-07-31T11:13:09;92378.97;;;28.23;51.87
10202;BME280;5143;42.584;23.164;2023-07-31T11:15:37;92381.50;;;28.19;51.72
10202;BME280;5143;42.584;23.164;2023-07-31T11:18:04;92375.41;;;28.01;48.36
10202;BME280;5143;42.584;23.164;2023-07-31T11:20:34;92385.25;;;28.12;49.47
10202;BME280;5143;42.584;23.164;2023-07-31T11:23:01;92379.03;;;27.83;50.35
10202;BME280;5143;42.584;23.164;2023-07-31T11:25:29;92381.81;;;28.14;51.25
10202;BME280;5143;42.584;23.164;2023-07-31T11:27:57;92385.19;;;28.43;47.86
10202;BME280;5143;42.584;23.164;2023-07-31T11:30:24;92373.91;;;28.00;48.30
10202;BME280;5143;42.584;23.164;2023-07-31T11:32:52;92372.50;;;27.90;49.05
10202;BME280;5143;42.584;23.164;2023-07-31T11:35:18;92382.25;;;27.89;50.68
10202;BME280;5143;42.584;23.164;2023-07-31T11:37:45;92384.25;;;27.77;50.36
10202;BME280;5143;42.584;23.164;2023-07-31T11:40:12;92379.84;;;28.04;50.61
10202;BME280;5143;42.584;23.164;2023-07-31T11:42:39;92385.94;;;27.91;48.70
10202;BME280;5143;42.584;23.164;2023-07-31T11:45:07;92376.88;;;27.72;48.20
10202;BME280;5143;42.584;23.164;2023-07-31T11:47:34;92364.66;;;27.67;50.09
10202;BME280;5143;42.584;23.164;2023-07-31T11:50:04;92365.59;;;27.60;55.07
10202;BME280;5143;42.584;23.164;2023-07-31T11:52:35;92366.72;;;27.36;55.48
10202;BME280;5143;42.584;23.164;2023-07-31T11:55:03;92367.75;;;27.00;55.02
10202;BME280;5143;42.584;23.164;2023-07-31T11:57:31;92364.78;;;26.98;53.80
10202;BME280;5143;42.584;23.164;2023-07-31T11:59:59;92365.72;;;26.43;55.84
10202;BME280;5143;42.584;23.164;2023-07-31T12:02:26;92363.41;;;26.20;58.12
10202;BME280;5143;42.584;23.164;2023-07-31T12:04:52;92356.31;;;26.38;57.61
10202;BME280;5143;42.584;23.164;2023-07-31T12:07:20;92360.88;;;26.53;59.08
10202;BME280;5143;42.584;23.164;2023-07-31T12:09:51;92350.47;;;27.04;57.54
10202;BME280;5143;42.584;23.164;2023-07-31T12:12:20;92356.16;;;27.56;54.99
10202;BME280;5143;42.584;23.164;2023-07-31T12:14:46;92330.28;;;27.67;54.33
10202;BME280;5143;42.584;23.164;2023-07-31T12:17:14;92360.44;;;27.87;53.45
10202;BME280;5143;42.584;23.164;2023-07-31T12:19:41;92347.09;;;27.67;53.65
10202;BME280;5143;42.584;23.164;2023-07-31T12:22:11;92343.03;;;28.10;54.65
10202;BME280;5143;42.584;23.164;2023-07-31T12:24:42;92344.44;;;27.69;52.96
10202;BME280;5143;42.584;23.164;2023-07-31T12:27:11;92343.41;;;27.33;54.58
10202;BME280;5143;42.584;23.164;2023-07-31T12:29:38;92342.22;;;27.36;55.60
10202;BME280;5143;42.584;23.164;2023-07-31T12:32:19;92338.94;;;27.49;52.17
10202;BME280;5143;42.584;23.164;2023-07-31T12:34:46;92340.66;;;27.24;53.15
10202;BME280;5143;42.584;23.164;2023-07-31T12:37:12;92344.44;;;27.69;52.98
10202;BME280;5143;42.584;23.164;2023-07-31T12:39:41;92341.78;;;27.71;51.25
10202;BME280;5143;42.584;23.164;2023-07-31T12:42:07;92334.94;;;28.04;51.39
10202;BME280;5143;42.584;23.164;2023-07-31T12:44:34;92343.22;;;28.02;51.49
10202;BME280;5143;42.584;23.164;2023-07-31T12:47:01;92342.88;;;28.29;49.58
10202;BME280;5143;42.584;23.164;2023-07-31T12:49:29;92334.50;;;28.20;51.01
10202;BME280;5143;42.584;23.164;2023-07-31T12:51:56;92326.56;;;28.16;50.29
10202;BME280;5143;42.584;23.164;2023-07-31T12:54:22;92328.84;;;28.29;52.75
10202;BME280;5143;42.584;23.164;2023-07-31T12:56:50;92318.66;;;28.24;51.43